Forside
METAR-TAF:

METAR-TAF

Lufthavne :

Danville, Illinois, USA

Breddekreds: 40-11-58N, længdekreds: 087-35-44W, højde: 212 m

Aktuelle vejr

Denne rapport blev lavet for 8 minutter siden, kl. 21:15 UTC
Vind 8 kt fra vestsydvest
Temperatur 4°C
Fugtighed 75%
Tryk 1013 hPa
Sigt: 16.1 km
Brudte skyer i en højde af 10000 ft

METAR: KDNV 262115Z AUTO 25008KT 10SM BKN100 04/00 A2990 RMK AO2 T00440000

Tid: 15:23 (21:23 UTC)


TAF: fraværende

Vejrobservationer og prognoser fra mere end 4000 lufthavne (METAR og TAF).

De gule og røde prikker repræsenterer de meteorologiske stationer.

Flyt musen over at se navnet på stationen.

Så klik over at se vejr observationer og prognoser.

At skifte det kort: Klik på de grønne knapper med et sort kors for at zoome ind; på den grønne knap med en bindestreg for at zoome ud; eller på de grønne pile for tilstødende kort.


METAR-TAF: